Groveland, Massachusetts
Current Conditions -  °F | °C
As of 8:54 PM on Saturday 20 Dec 2014 (Local Time) from KLWM Reporting Station
Overcast Overcast  
Wind Chill: 25°   Ceiling: 3900
Heat Index: 33°   Visibility: 10mi
Dew Point: 26°   Wind: 10mph
Humidity: 75%   Direction: 30°NNE
Pressure: 30.32"   Gusts: NA
Location:  42.76°N, 71.03°W
Report Text: KLWM 210154Z 03009KT 10SM OVC039 01/M03 A3032 RMK AO2 SLP269 T00061033
Loading
Personal Weather Stations






























Interactive Weather Map New forecast layout! Learn more

10-Day Weather Forecast

Advertisements
Track Severe Weather on mobile